createdAt,value
2022-09-21T00:01:24.889Z,6.83
2022-09-21T00:03:58.909Z,6.60
2022-09-21T00:06:35.416Z,6.30
2022-09-21T00:09:04.058Z,6.93
2022-09-21T00:11:31.445Z,6.53
2022-09-21T00:14:08.137Z,7.20
2022-09-21T00:16:35.090Z,6.57
2022-09-21T00:19:02.100Z,6.43
2022-09-21T00:21:29.836Z,6.90
2022-09-21T00:23:57.243Z,7.07
2022-09-21T00:26:25.889Z,6.53
2022-09-21T00:29:00.691Z,5.87
2022-09-21T00:31:28.655Z,5.63
2022-09-21T00:33:56.528Z,5.67
2022-09-21T00:36:24.977Z,5.47
2022-09-21T00:38:56.749Z,6.40
2022-09-21T00:41:24.228Z,6.07
2022-09-21T00:44:27.465Z,6.60
2022-09-21T00:46:57.325Z,5.77
2022-09-21T00:49:24.537Z,5.70
2022-09-21T00:51:58.791Z,5.93
2022-09-21T00:54:31.258Z,5.93
2022-09-21T00:57:03.176Z,6.20
2022-09-21T00:59:38.615Z,6.07
2022-09-21T01:02:05.504Z,6.33
2022-09-21T01:04:41.393Z,6.20
2022-09-21T01:07:12.504Z,6.27
2022-09-21T01:09:41.035Z,6.60
2022-09-21T01:12:24.768Z,6.67
2022-09-21T01:15:14.542Z,7.10
2022-09-21T01:17:44.081Z,6.53
2022-09-21T01:20:35.156Z,6.27
2022-09-21T01:23:19.516Z,6.20
2022-09-21T01:26:12.029Z,5.73
2022-09-21T01:28:56.917Z,6.23
2022-09-21T01:31:34.756Z,5.50
2022-09-21T01:34:08.300Z,6.30
2022-09-21T01:36:35.145Z,5.77
2022-09-21T01:39:14.502Z,6.87
2022-09-21T01:41:42.618Z,6.43
2022-09-21T01:44:14.754Z,5.97
2022-09-21T01:46:42.525Z,6.10
2022-09-21T01:49:11.909Z,6.63
2022-09-21T01:51:43.619Z,5.83
2022-09-21T01:54:14.066Z,5.60
2022-09-21T01:56:44.692Z,5.70
2022-09-21T01:59:17.022Z,6.00
2022-09-21T02:01:53.668Z,6.00
2022-09-21T02:04:20.155Z,6.17
2022-09-21T02:06:47.749Z,5.97
2022-09-21T02:09:14.532Z,5.93
2022-09-21T02:11:43.906Z,5.27
2022-09-21T02:14:17.080Z,5.53
2022-09-21T02:16:55.340Z,5.57
2022-09-21T02:19:45.121Z,5.13
2022-09-21T02:22:21.967Z,4.73
2022-09-21T02:24:53.341Z,5.17
2022-09-21T02:27:36.416Z,5.67
2022-09-21T02:30:08.926Z,5.07
2022-09-21T02:32:51.602Z,5.37
2022-09-21T02:35:33.254Z,4.80
2022-09-21T02:38:20.261Z,4.50
2022-09-21T02:40:54.089Z,4.40
2022-09-21T02:43:45.391Z,4.80
2022-09-21T02:46:27.691Z,4.57
2022-09-21T02:48:57.612Z,4.67
2022-09-21T02:51:37.412Z,4.50
2022-09-21T02:54:04.932Z,4.27
2022-09-21T02:56:31.427Z,4.57
2022-09-21T02:59:02.088Z,4.17
2022-09-21T03:01:29.301Z,3.90
2022-09-21T03:03:55.729Z,3.80
2022-09-21T03:06:22.137Z,4.10
2022-09-21T03:08:48.807Z,3.50
2022-09-21T03:11:19.342Z,4.07
2022-09-21T03:13:46.093Z,4.40
2022-09-21T03:16:12.950Z,4.33
2022-09-21T03:18:40.336Z,4.70
2022-09-21T03:21:07.163Z,4.40
2022-09-21T03:23:33.559Z,4.40
2022-09-21T03:26:00.030Z,4.27
2022-09-21T03:28:26.658Z,4.10
2022-09-21T03:30:53.145Z,4.30
2022-09-21T03:33:20.985Z,3.93
2022-09-21T03:35:50.921Z,4.00
2022-09-21T03:38:18.193Z,3.80
2022-09-21T03:40:46.225Z,4.30
2022-09-21T03:43:13.178Z,4.97
2022-09-21T03:45:42.012Z,4.77
2022-09-21T03:48:09.474Z,4.70
2022-09-21T03:50:35.970Z,4.70
2022-09-21T03:53:02.541Z,4.10
2022-09-21T03:55:29.808Z,4.00
2022-09-21T03:57:56.218Z,4.10
2022-09-21T04:00:22.629Z,4.63
2022-09-21T04:02:49.099Z,4.37
2022-09-21T04:05:16.324Z,4.80
2022-09-21T04:07:45.664Z,5.23
2022-09-21T04:10:14.701Z,4.33
2022-09-21T04:12:43.322Z,4.40
2022-09-21T04:15:14.842Z,5.50
2022-09-21T04:17:41.227Z,5.37
2022-09-21T04:20:08.948Z,5.30
2022-09-21T04:22:39.949Z,5.20
2022-09-21T04:25:10.438Z,5.17
2022-09-21T04:27:37.021Z,5.37
2022-09-21T04:30:03.872Z,5.10
2022-09-21T04:32:30.241Z,4.60
2022-09-21T04:34:56.695Z,4.97
2022-09-21T04:37:23.087Z,5.13
2022-09-21T04:39:49.562Z,4.53
2022-09-21T04:42:15.950Z,4.97
2022-09-21T04:44:42.383Z,3.80
2022-09-21T04:47:08.789Z,4.10
2022-09-21T04:49:35.219Z,4.70
2022-09-21T04:52:01.817Z,4.40
2022-09-21T04:54:28.220Z,4.50
2022-09-21T04:56:54.754Z,5.33
2022-09-21T04:59:21.301Z,4.90
2022-09-21T05:01:47.739Z,4.30
2022-09-21T05:04:14.250Z,4.23
2022-09-21T05:06:40.672Z,3.93
2022-09-21T05:09:25.804Z,4.50
2022-09-21T05:11:52.887Z,4.37
2022-09-21T05:14:19.285Z,4.57
2022-09-21T05:16:49.926Z,4.70
2022-09-21T05:19:17.228Z,4.03
2022-09-21T05:21:43.794Z,4.70
2022-09-21T05:24:10.345Z,4.23
2022-09-21T05:26:37.821Z,4.13
2022-09-21T05:29:04.831Z,4.37
2022-09-21T05:31:46.127Z,4.03
2022-09-21T05:34:25.186Z,3.80
2022-09-21T05:36:58.543Z,4.10
2022-09-21T05:39:25.202Z,4.67
2022-09-21T05:41:51.760Z,4.90
2022-09-21T05:44:18.375Z,4.83
2022-09-21T05:47:11.579Z,4.53
2022-09-21T05:50:15.648Z,5.30
2022-09-21T05:52:58.800Z,5.07
2022-09-21T05:55:33.792Z,4.73
2022-09-21T05:58:37.791Z,4.70
2022-09-21T06:01:23.607Z,5.20
2022-09-21T06:03:50.292Z,4.77
2022-09-21T06:06:18.307Z,4.97
2022-09-21T06:08:44.672Z,5.07
2022-09-21T06:11:11.442Z,5.70
2022-09-21T06:13:38.095Z,5.23
2022-09-21T06:16:04.803Z,5.73
2022-09-21T06:18:31.339Z,4.70
2022-09-21T06:20:57.756Z,5.50
2022-09-21T06:23:24.219Z,5.97
2022-09-21T06:25:58.189Z,5.57
2022-09-21T06:28:25.171Z,5.90
2022-09-21T06:30:53.213Z,5.70
2022-09-21T06:33:23.636Z,6.17
2022-09-21T06:35:54.810Z,6.07
2022-09-21T06:38:21.677Z,7.17
2022-09-21T06:40:48.180Z,7.27
2022-09-21T06:43:14.688Z,7.10
2022-09-21T06:45:41.290Z,6.80
2022-09-21T06:48:08.062Z,8.37
2022-09-21T06:50:34.919Z,8.07
2022-09-21T06:53:02.556Z,8.63
2022-09-21T06:55:30.120Z,7.50
2022-09-21T06:58:01.881Z,8.23
2022-09-21T07:00:28.636Z,8.60
2022-09-21T07:02:55.170Z,8.23
2022-09-21T07:05:21.566Z,6.70
2022-09-21T07:07:53.271Z,7.60
2022-09-21T07:10:20.822Z,6.93
2022-09-21T07:12:47.510Z,6.80
2022-09-21T07:15:15.511Z,6.93
2022-09-21T07:17:51.809Z,6.03
2022-09-21T07:20:18.771Z,7.50
2022-09-21T07:22:45.203Z,6.63
2022-09-21T07:25:11.806Z,7.17
2022-09-21T07:27:38.311Z,6.87
2022-09-21T07:30:05.645Z,5.87
2022-09-21T07:32:33.805Z,6.00
2022-09-21T07:35:04.290Z,5.20
2022-09-21T07:37:38.709Z,5.27
2022-09-21T07:40:11.063Z,4.20
2022-09-21T07:42:40.888Z,4.90
2022-09-21T07:45:11.253Z,4.23
2022-09-21T07:47:42.487Z,4.00
2022-09-21T07:50:12.414Z,3.57
2022-09-21T07:52:45.287Z,3.07
2022-09-21T07:55:19.961Z,2.93
2022-09-21T07:58:15.422Z,1.97
2022-09-21T08:00:44.727Z,2.00
2022-09-21T08:03:15.072Z,1.93
2022-09-21T08:05:41.800Z,2.23
2022-09-21T08:08:09.022Z,2.30
2022-09-21T08:10:36.073Z,2.13
2022-09-21T08:13:02.710Z,2.27
2022-09-21T08:15:48.779Z,2.10
2022-09-21T08:18:15.552Z,2.23
2022-09-21T08:20:42.299Z,2.43
2022-09-21T08:23:08.691Z,1.90
2022-09-21T08:25:35.362Z,2.03
2022-09-21T08:28:06.117Z,2.40
2022-09-21T08:30:35.378Z,2.27
2022-09-21T08:33:02.374Z,1.93
2022-09-21T08:35:28.948Z,2.53
2022-09-21T08:37:55.422Z,2.13
2022-09-21T08:40:22.044Z,2.30
2022-09-21T08:43:43.349Z,2.00
2022-09-21T08:46:15.486Z,2.20
2022-09-21T08:48:54.301Z,2.40
2022-09-21T08:51:23.801Z,2.10
2022-09-21T08:53:52.981Z,2.07
2022-09-21T08:56:20.571Z,2.20
2022-09-21T08:58:47.008Z,2.07
2022-09-21T09:01:44.653Z,2.17
2022-09-21T09:04:13.960Z,2.10
2022-09-21T09:06:58.557Z,2.10
2022-09-21T09:09:44.511Z,1.97
2022-09-21T09:12:35.980Z,2.13
2022-09-21T09:15:17.632Z,2.20
2022-09-21T09:17:56.411Z,2.00
2022-09-21T09:20:31.539Z,2.07
2022-09-21T09:23:13.061Z,2.10
2022-09-21T09:25:41.828Z,2.20
2022-09-21T09:28:24.703Z,2.10
2022-09-21T09:31:01.549Z,2.03
2022-09-21T09:33:38.174Z,2.10
2022-09-21T09:36:09.890Z,2.13
2022-09-21T09:38:49.138Z,1.83
2022-09-21T09:41:46.553Z,2.00
2022-09-21T09:44:31.725Z,2.03
2022-09-21T09:47:27.941Z,1.43
2022-09-21T09:50:06.720Z,1.40
2022-09-21T09:52:33.434Z,1.70
2022-09-21T09:55:00.744Z,1.83
2022-09-21T09:57:31.740Z,1.60
2022-09-21T10:00:01.337Z,1.47
2022-09-21T10:02:29.303Z,1.60
2022-09-21T10:05:18.294Z,1.20
2022-09-21T10:07:48.811Z,1.30
2022-09-21T10:10:33.653Z,1.60
2022-09-21T10:13:33.400Z,1.20
2022-09-21T10:16:18.210Z,1.60
2022-09-21T10:18:58.866Z,1.10
2022-09-21T10:21:39.799Z,1.80
2022-09-21T10:24:08.163Z,1.40
2022-09-21T10:26:54.514Z,1.10
2022-09-21T10:29:23.911Z,1.50
2022-09-21T10:31:58.163Z,1.57
2022-09-21T10:34:27.311Z,1.67
2022-09-21T10:36:56.169Z,1.40
2022-09-21T10:39:32.962Z,1.47
2022-09-21T10:42:03.595Z,1.70
2022-09-21T10:44:37.626Z,1.20
2022-09-21T10:47:16.921Z,1.23
2022-09-21T10:49:47.190Z,1.10
2022-09-21T10:52:13.976Z,1.30
2022-09-21T10:54:41.551Z,1.27
2022-09-21T10:57:09.916Z,1.40
2022-09-21T10:59:37.294Z,1.40
2022-09-21T11:02:23.726Z,2.57
2022-09-21T11:04:54.262Z,1.40
2022-09-21T11:07:29.220Z,1.40
2022-09-21T11:10:16.940Z,2.03
2022-09-21T11:12:59.594Z,1.03
2022-09-21T11:15:52.232Z,1.00
2022-09-21T11:18:35.864Z,1.03
2022-09-21T11:21:13.653Z,1.17
2022-09-21T11:24:03.416Z,1.30
2022-09-21T11:26:51.897Z,1.20
2022-09-21T11:29:23.283Z,0.90
2022-09-21T11:32:05.870Z,1.00
2022-09-21T11:35:01.749Z,1.10
2022-09-21T11:38:06.042Z,1.30
2022-09-21T11:40:32.833Z,1.40
2022-09-21T11:43:25.038Z,1.30
2022-09-21T11:45:58.880Z,1.00
2022-09-21T11:49:02.748Z,1.33
2022-09-21T11:51:41.459Z,1.20
2022-09-21T11:54:24.067Z,1.00
2022-09-21T11:56:56.037Z,0.80
2022-09-21T11:59:38.785Z,0.90
2022-09-21T12:02:26.778Z,1.20
2022-09-21T12:05:04.352Z,1.07
2022-09-21T12:07:42.871Z,0.90
2022-09-21T12:10:33.539Z,1.00
2022-09-21T12:13:08.247Z,1.00
2022-09-21T12:15:38.195Z,1.20
2022-09-21T12:18:41.422Z,1.10
2022-09-21T12:21:26.668Z,1.00
2022-09-21T12:23:56.330Z,0.93
2022-09-21T12:26:29.944Z,0.80
2022-09-21T12:29:00.996Z,1.20
2022-09-21T12:31:35.985Z,0.77
2022-09-21T12:34:24.863Z,0.77
2022-09-21T12:37:08.711Z,0.83
2022-09-21T12:39:56.363Z,0.73
2022-09-21T12:43:03.721Z,0.80
2022-09-21T12:45:34.007Z,1.40
2022-09-21T12:48:04.451Z,1.00
2022-09-21T12:50:48.641Z,0.90
2022-09-21T12:53:22.281Z,1.00
2022-09-21T12:56:06.504Z,1.43
2022-09-21T12:58:51.385Z,1.40
2022-09-21T13:01:31.357Z,0.87
2022-09-21T13:04:13.191Z,1.17
2022-09-21T13:06:56.703Z,1.13
2022-09-21T13:09:24.098Z,1.50
2022-09-21T13:11:56.917Z,0.97
2022-09-21T13:14:34.704Z,1.13
2022-09-21T13:17:03.026Z,1.10
2022-09-21T13:19:32.849Z,0.93
2022-09-21T13:22:19.823Z,0.90
2022-09-21T13:25:02.914Z,0.80
2022-09-21T13:28:00.725Z,1.00
2022-09-21T13:30:36.164Z,1.10
2022-09-21T13:33:05.167Z,0.90
2022-09-21T13:36:02.643Z,0.97
2022-09-21T13:38:41.269Z,6.20
2022-09-21T13:41:19.780Z,1.30
2022-09-21T13:44:04.366Z,0.80
2022-09-21T13:46:34.810Z,11.90
2022-09-21T13:49:13.897Z,1.80
2022-09-21T13:52:05.885Z,1.97
2022-09-21T13:54:35.278Z,0.80
2022-09-21T13:57:16.302Z,1.13
2022-09-21T13:59:44.547Z,0.90
2022-09-21T14:02:35.256Z,0.70
2022-09-21T14:05:31.439Z,0.97
2022-09-21T14:08:00.143Z,0.83
2022-09-21T14:10:35.779Z,0.73
2022-09-21T14:13:07.393Z,1.00
2022-09-21T14:15:36.851Z,1.00
2022-09-21T14:18:16.240Z,0.93
2022-09-21T14:21:08.330Z,1.40
2022-09-21T14:23:36.547Z,0.97
2022-09-21T14:26:20.722Z,1.20
2022-09-21T14:28:51.633Z,1.10
2022-09-21T14:31:26.265Z,1.10
2022-09-21T14:33:57.718Z,0.83
2022-09-21T14:36:41.443Z,1.10
2022-09-21T14:39:17.628Z,1.10
2022-09-21T14:41:45.989Z,0.80
2022-09-21T14:44:21.853Z,0.93
2022-09-21T14:47:11.259Z,1.10
2022-09-21T14:50:15.058Z,1.57
2022-09-21T14:52:53.052Z,0.90
2022-09-21T14:55:31.728Z,0.80
2022-09-21T14:58:36.794Z,0.97
2022-09-21T15:01:22.168Z,0.90
2022-09-21T15:04:16.575Z,1.20
2022-09-21T15:07:17.003Z,0.80
2022-09-21T15:10:35.725Z,1.20
2022-09-21T15:13:11.902Z,0.90
2022-09-21T15:15:51.660Z,1.27
2022-09-21T15:18:22.502Z,1.10
2022-09-21T15:21:02.271Z,1.20
2022-09-21T15:23:31.867Z,0.93
2022-09-21T15:26:09.039Z,1.00
2022-09-21T15:29:07.848Z,1.10
2022-09-21T15:31:48.856Z,1.93
2022-09-21T15:34:15.389Z,0.93
2022-09-21T15:36:43.053Z,1.10
2022-09-21T15:39:28.363Z,1.10
2022-09-21T15:42:10.255Z,0.90
2022-09-21T15:44:38.335Z,1.00
2022-09-21T15:47:09.074Z,1.03
2022-09-21T15:49:35.879Z,0.90
2022-09-21T15:52:13.777Z,1.10
2022-09-21T15:54:42.582Z,1.33
2022-09-21T15:57:38.412Z,0.83
2022-09-21T16:00:08.311Z,1.30
2022-09-21T16:02:37.843Z,1.30
2022-09-21T16:05:05.552Z,1.20
2022-09-21T16:07:37.052Z,1.00
2022-09-21T16:10:34.555Z,0.70
2022-09-21T16:13:38.760Z,1.10
2022-09-21T16:16:12.040Z,0.97
2022-09-21T16:18:46.251Z,0.80
2022-09-21T16:21:23.847Z,0.80
2022-09-21T16:23:52.768Z,1.60
2022-09-21T16:26:22.859Z,1.10
2022-09-21T16:28:49.955Z,1.47
2022-09-21T16:31:28.818Z,1.10
2022-09-21T16:33:55.402Z,1.10
2022-09-21T16:36:34.547Z,1.13
2022-09-21T16:39:05.963Z,1.30
2022-09-21T16:41:41.333Z,0.87
2022-09-21T16:44:15.440Z,1.07
2022-09-21T16:46:43.971Z,1.00
2022-09-21T16:49:16.777Z,1.20
2022-09-21T16:51:43.201Z,0.97
2022-09-21T16:54:09.745Z,1.17
2022-09-21T16:56:36.223Z,0.77
2022-09-21T16:59:10.411Z,1.00
2022-09-21T17:01:36.901Z,1.23
2022-09-21T17:04:03.305Z,1.00
2022-09-21T17:06:30.693Z,0.97
2022-09-21T17:08:57.143Z,1.10
2022-09-21T17:11:24.067Z,0.90
2022-09-21T17:13:50.840Z,1.20
2022-09-21T17:16:18.713Z,1.30
2022-09-21T17:18:46.561Z,1.03
2022-09-21T17:21:13.749Z,1.07
2022-09-21T17:23:41.285Z,1.37
2022-09-21T17:26:17.539Z,1.50
2022-09-21T17:28:44.657Z,1.30
2022-09-21T17:31:16.495Z,1.50
2022-09-21T17:33:43.798Z,1.40
2022-09-21T17:36:14.364Z,1.30
2022-09-21T17:38:42.356Z,1.70
2022-09-21T17:41:34.789Z,1.60
2022-09-21T17:44:14.014Z,1.97
2022-09-21T17:46:47.946Z,2.93
2022-09-21T17:49:14.625Z,3.13
2022-09-21T17:52:00.164Z,3.03
2022-09-21T17:54:26.935Z,2.90
2022-09-21T17:56:59.545Z,3.00
2022-09-21T17:59:37.432Z,2.70
2022-09-21T18:02:24.390Z,2.73
2022-09-21T18:04:56.032Z,2.53
2022-09-21T18:07:25.193Z,2.07
2022-09-21T18:09:52.109Z,2.10
2022-09-21T18:12:50.138Z,2.00
2022-09-21T18:15:27.674Z,1.70
2022-09-21T18:18:12.875Z,1.70
2022-09-21T18:21:02.273Z,1.70
2022-09-21T18:23:54.920Z,1.80
2022-09-21T18:26:23.384Z,2.03
2022-09-21T18:28:57.916Z,2.43
2022-09-21T18:31:50.269Z,2.40
2022-09-21T18:34:16.563Z,2.93
2022-09-21T18:36:48.916Z,2.67
2022-09-21T18:39:26.079Z,5.57
2022-09-21T18:42:19.777Z,5.20
2022-09-21T18:45:14.340Z,4.80
2022-09-21T18:48:12.719Z,5.80
2022-09-21T18:50:48.270Z,7.93
2022-09-21T18:53:24.414Z,7.70
2022-09-21T18:55:52.111Z,7.10
2022-09-21T18:58:18.897Z,6.73
2022-09-21T19:00:45.458Z,5.77
2022-09-21T19:03:19.041Z,4.97
2022-09-21T19:06:06.081Z,4.20
2022-09-21T19:08:54.850Z,3.83
2022-09-21T19:11:34.744Z,3.80
2022-09-21T19:14:24.250Z,3.57
2022-09-21T19:16:58.741Z,3.77
2022-09-21T19:19:44.017Z,2.83
2022-09-21T19:22:35.721Z,3.77
2022-09-21T19:25:25.626Z,3.27
2022-09-21T19:28:00.394Z,3.17
2022-09-21T19:30:27.119Z,3.60
2022-09-21T19:32:58.490Z,3.00
2022-09-21T19:35:27.667Z,3.10
2022-09-21T19:37:56.761Z,3.20
2022-09-21T19:40:27.635Z,2.77
2022-09-21T19:43:20.637Z,3.30
2022-09-21T19:46:05.921Z,3.37
2022-09-21T19:48:43.099Z,3.20
2022-09-21T19:51:38.854Z,3.37
2022-09-21T19:54:31.947Z,3.67
2022-09-21T19:57:17.572Z,3.53
2022-09-21T19:59:44.413Z,3.53
2022-09-21T20:02:15.515Z,3.77
2022-09-21T20:04:52.490Z,3.57
2022-09-21T20:07:36.209Z,4.53
2022-09-21T20:10:22.176Z,4.53
2022-09-21T20:13:04.909Z,5.10
2022-09-21T20:15:37.037Z,6.00
2022-09-21T20:18:10.287Z,5.27
2022-09-21T20:20:38.064Z,4.87
2022-09-21T20:23:04.918Z,5.47
2022-09-21T20:25:34.993Z,5.27
2022-09-21T20:28:03.796Z,5.60
2022-09-21T20:30:33.370Z,5.43
2022-09-21T20:33:10.771Z,5.63
2022-09-21T20:35:37.204Z,6.20
2022-09-21T20:38:04.602Z,6.43
2022-09-21T20:40:32.113Z,5.87
2022-09-21T20:43:01.062Z,5.80
2022-09-21T20:45:28.379Z,5.53
2022-09-21T20:47:55.375Z,5.63
2022-09-21T20:50:26.703Z,5.80
2022-09-21T20:52:53.117Z,5.73
2022-09-21T20:55:20.358Z,6.47
2022-09-21T20:57:46.884Z,5.27
2022-09-21T21:00:15.154Z,6.00
2022-09-21T21:02:41.960Z,5.97
2022-09-21T21:05:10.375Z,5.50
2022-09-21T21:07:36.883Z,4.83
2022-09-21T21:10:03.983Z,5.50
2022-09-21T21:12:30.931Z,6.03
2022-09-21T21:14:59.123Z,5.43
2022-09-21T21:17:25.619Z,5.30
2022-09-21T21:19:52.133Z,5.40
2022-09-21T21:22:18.571Z,5.33
2022-09-21T21:24:45.110Z,5.00
2022-09-21T21:27:17.179Z,5.00
2022-09-21T21:29:46.339Z,5.27
2022-09-21T21:32:14.396Z,5.50
2022-09-21T21:34:40.995Z,5.57
2022-09-21T21:37:07.588Z,5.43
2022-09-21T21:39:33.983Z,5.20
2022-09-21T21:42:00.414Z,4.70
2022-09-21T21:44:27.122Z,5.27
2022-09-21T21:46:53.874Z,4.90
2022-09-21T21:49:21.016Z,4.57
2022-09-21T21:51:49.259Z,5.00
2022-09-21T21:54:18.307Z,5.07
2022-09-21T21:56:45.730Z,5.10
2022-09-21T21:59:17.433Z,5.23
2022-09-21T22:01:44.326Z,5.17
2022-09-21T22:04:10.874Z,5.20
2022-09-21T22:06:39.136Z,5.33
2022-09-21T22:09:09.358Z,5.30
2022-09-21T22:11:36.136Z,5.17
2022-09-21T22:14:03.742Z,5.57
2022-09-21T22:16:31.930Z,5.27
2022-09-21T22:18:58.753Z,5.40
2022-09-21T22:21:28.132Z,6.03
2022-09-21T22:24:00.192Z,5.90
2022-09-21T22:26:27.931Z,5.73
2022-09-21T22:28:56.494Z,5.60
2022-09-21T22:31:26.430Z,5.27
2022-09-21T22:33:53.887Z,5.37
2022-09-21T22:36:24.560Z,5.67
2022-09-21T22:38:51.017Z,5.40
2022-09-21T22:41:19.479Z,5.23
2022-09-21T22:43:46.895Z,5.43
2022-09-21T22:46:14.262Z,4.87
2022-09-21T22:48:40.718Z,5.20
2022-09-21T22:51:07.271Z,5.40
2022-09-21T22:53:33.687Z,5.43
2022-09-21T22:56:01.444Z,5.20
2022-09-21T22:58:27.860Z,5.37
2022-09-21T23:01:24.997Z,5.77
2022-09-21T23:03:54.697Z,4.73
2022-09-21T23:06:22.848Z,4.87
2022-09-21T23:08:50.519Z,5.83
2022-09-21T23:11:31.787Z,5.17
2022-09-21T23:13:59.424Z,5.90
2022-09-21T23:16:27.524Z,5.70
2022-09-21T23:18:54.294Z,5.20
2022-09-21T23:21:22.864Z,4.27
2022-09-21T23:23:49.474Z,5.33
2022-09-21T23:26:24.068Z,4.83
2022-09-21T23:28:52.507Z,5.17
2022-09-21T23:31:19.522Z,5.90
2022-09-21T23:33:48.271Z,5.30
2022-09-21T23:36:16.672Z,5.83
2022-09-21T23:38:43.674Z,5.73
2022-09-21T23:41:18.552Z,5.87
2022-09-21T23:43:45.924Z,5.77
2022-09-21T23:46:14.929Z,5.50
2022-09-21T23:48:41.825Z,6.67
2022-09-21T23:51:08.772Z,6.90
2022-09-21T23:53:36.545Z,6.27
2022-09-21T23:56:04.020Z,6.17
2022-09-21T23:58:30.475Z,5.87
